sensor_id;sensor_type;location;lat;lon;timestamp;P1;durP1;ratioP1;P2;durP2;ratioP2
35578;SDS011;21687;48.900;9.188;2022-11-11T00:01:03;15.17;;;8.90;;
35578;SDS011;21687;48.900;9.188;2022-11-11T00:03:34;13.37;;;9.27;;
35578;SDS011;21687;48.900;9.188;2022-11-11T00:06:01;16.27;;;9.13;;
35578;SDS011;21687;48.900;9.188;2022-11-11T00:08:28;16.93;;;10.40;;
35578;SDS011;21687;48.900;9.188;2022-11-11T00:11:03;12.97;;;9.57;;
35578;SDS011;21687;48.900;9.188;2022-11-11T00:13:31;12.83;;;9.50;;
35578;SDS011;21687;48.900;9.188;2022-11-11T00:16:07;15.40;;;9.70;;
35578;SDS011;21687;48.900;9.188;2022-11-11T00:18:37;15.93;;;9.50;;
35578;SDS011;21687;48.900;9.188;2022-11-11T00:21:22;12.80;;;9.37;;
35578;SDS011;21687;48.900;9.188;2022-11-11T00:24:00;13.23;;;9.60;;
35578;SDS011;21687;48.900;9.188;2022-11-11T00:26:46;12.40;;;9.83;;
35578;SDS011;21687;48.900;9.188;2022-11-11T00:29:12;12.87;;;8.77;;
35578;SDS011;21687;48.900;9.188;2022-11-11T00:31:38;12.13;;;8.97;;
35578;SDS011;21687;48.900;9.188;2022-11-11T00:34:26;13.33;;;9.30;;
35578;SDS011;21687;48.900;9.188;2022-11-11T00:36:52;17.97;;;9.43;;
35578;SDS011;21687;48.900;9.188;2022-11-11T00:39:19;15.47;;;9.70;;
35578;SDS011;21687;48.900;9.188;2022-11-11T00:41:45;15.43;;;9.43;;
35578;SDS011;21687;48.900;9.188;2022-11-11T00:44:12;16.17;;;10.13;;
35578;SDS011;21687;48.900;9.188;2022-11-11T00:46:38;16.63;;;10.43;;
35578;SDS011;21687;48.900;9.188;2022-11-11T00:49:23;13.60;;;9.80;;
35578;SDS011;21687;48.900;9.188;2022-11-11T00:52:08;15.77;;;10.17;;
35578;SDS011;21687;48.900;9.188;2022-11-11T00:54:34;14.17;;;10.57;;
35578;SDS011;21687;48.900;9.188;2022-11-11T00:57:00;13.10;;;10.17;;
35578;SDS011;21687;48.900;9.188;2022-11-11T00:59:27;14.40;;;10.10;;
35578;SDS011;21687;48.900;9.188;2022-11-11T01:01:53;14.83;;;9.90;;
35578;SDS011;21687;48.900;9.188;2022-11-11T01:04:19;15.27;;;10.83;;
35578;SDS011;21687;48.900;9.188;2022-11-11T01:06:46;18.43;;;10.43;;
35578;SDS011;21687;48.900;9.188;2022-11-11T01:09:12;15.70;;;9.60;;
35578;SDS011;21687;48.900;9.188;2022-11-11T01:11:38;12.20;;;8.93;;
35578;SDS011;21687;48.900;9.188;2022-11-11T01:14:04;16.27;;;9.43;;
35578;SDS011;21687;48.900;9.188;2022-11-11T01:16:30;13.70;;;9.07;;
35578;SDS011;21687;48.900;9.188;2022-11-11T01:18:57;14.67;;;10.57;;
35578;SDS011;21687;48.900;9.188;2022-11-11T01:21:23;16.17;;;10.73;;
35578;SDS011;21687;48.900;9.188;2022-11-11T01:23:50;16.47;;;10.67;;
35578;SDS011;21687;48.900;9.188;2022-11-11T01:26:21;16.10;;;11.70;;
35578;SDS011;21687;48.900;9.188;2022-11-11T01:28:52;19.40;;;11.80;;
35578;SDS011;21687;48.900;9.188;2022-11-11T01:31:21;13.53;;;11.30;;
35578;SDS011;21687;48.900;9.188;2022-11-11T01:33:48;16.50;;;11.60;;
35578;SDS011;21687;48.900;9.188;2022-11-11T01:36:20;19.10;;;12.13;;
35578;SDS011;21687;48.900;9.188;2022-11-11T01:38:51;19.10;;;11.83;;
35578;SDS011;21687;48.900;9.188;2022-11-11T01:41:29;16.47;;;10.90;;
35578;SDS011;21687;48.900;9.188;2022-11-11T01:46:38;18.37;;;10.93;;
35578;SDS011;21687;48.900;9.188;2022-11-11T01:49:23;15.37;;;11.47;;
35578;SDS011;21687;48.900;9.188;2022-11-11T01:57:10;20.87;;;11.07;;
35578;SDS011;21687;48.900;9.188;2022-11-11T01:59:43;16.23;;;11.53;;
35578;SDS011;21687;48.900;9.188;2022-11-11T02:02:28;17.90;;;11.83;;
35578;SDS011;21687;48.900;9.188;2022-11-11T02:04:59;16.13;;;11.37;;
35578;SDS011;21687;48.900;9.188;2022-11-11T02:07:46;22.13;;;12.33;;
35578;SDS011;21687;48.900;9.188;2022-11-11T02:10:15;16.03;;;11.63;;
35578;SDS011;21687;48.900;9.188;2022-11-11T02:12:45;16.50;;;11.27;;
35578;SDS011;21687;48.900;9.188;2022-11-11T02:15:30;16.67;;;11.37;;
35578;SDS011;21687;48.900;9.188;2022-11-11T02:17:56;17.77;;;11.93;;
35578;SDS011;21687;48.900;9.188;2022-11-11T02:20:24;15.53;;;11.67;;
35578;SDS011;21687;48.900;9.188;2022-11-11T02:25:31;17.97;;;12.00;;
35578;SDS011;21687;48.900;9.188;2022-11-11T02:28:02;17.73;;;11.47;;
35578;SDS011;21687;48.900;9.188;2022-11-11T02:30:33;16.23;;;11.03;;
35578;SDS011;21687;48.900;9.188;2022-11-11T02:33:00;14.27;;;11.33;;
35578;SDS011;21687;48.900;9.188;2022-11-11T02:35:31;18.43;;;12.77;;
35578;SDS011;21687;48.900;9.188;2022-11-11T02:38:03;20.63;;;12.23;;
35578;SDS011;21687;48.900;9.188;2022-11-11T02:40:34;18.97;;;11.43;;
35578;SDS011;21687;48.900;9.188;2022-11-11T02:43:27;16.70;;;9.87;;
35578;SDS011;21687;48.900;9.188;2022-11-11T02:45:54;13.57;;;10.03;;
35578;SDS011;21687;48.900;9.188;2022-11-11T02:48:22;15.07;;;9.57;;
35578;SDS011;21687;48.900;9.188;2022-11-11T02:50:49;15.03;;;9.53;;
35578;SDS011;21687;48.900;9.188;2022-11-11T02:53:16;15.87;;;9.90;;
35578;SDS011;21687;48.900;9.188;2022-11-11T02:55:43;11.57;;;9.17;;
35578;SDS011;21687;48.900;9.188;2022-11-11T02:58:09;16.63;;;10.10;;
35578;SDS011;21687;48.900;9.188;2022-11-11T03:00:36;13.17;;;10.27;;
35578;SDS011;21687;48.900;9.188;2022-11-11T03:03:02;15.00;;;10.30;;
35578;SDS011;21687;48.900;9.188;2022-11-11T03:05:28;14.23;;;10.20;;
35578;SDS011;21687;48.900;9.188;2022-11-11T03:07:55;13.93;;;9.93;;
35578;SDS011;21687;48.900;9.188;2022-11-11T03:10:21;14.27;;;9.73;;
35578;SDS011;21687;48.900;9.188;2022-11-11T03:12:48;14.07;;;9.63;;
35578;SDS011;21687;48.900;9.188;2022-11-11T03:15:14;18.20;;;10.13;;
35578;SDS011;21687;48.900;9.188;2022-11-11T03:17:41;13.33;;;9.87;;
35578;SDS011;21687;48.900;9.188;2022-11-11T03:20:14;15.13;;;9.73;;
35578;SDS011;21687;48.900;9.188;2022-11-11T03:23:04;18.33;;;11.17;;
35578;SDS011;21687;48.900;9.188;2022-11-11T03:25:41;15.40;;;10.50;;
35578;SDS011;21687;48.900;9.188;2022-11-11T03:28:16;16.07;;;10.57;;
35578;SDS011;21687;48.900;9.188;2022-11-11T03:30:44;15.33;;;11.03;;
35578;SDS011;21687;48.900;9.188;2022-11-11T03:33:12;16.33;;;10.93;;
35578;SDS011;21687;48.900;9.188;2022-11-11T03:35:39;14.10;;;10.33;;
35578;SDS011;21687;48.900;9.188;2022-11-11T03:38:07;15.37;;;11.17;;
35578;SDS011;21687;48.900;9.188;2022-11-11T03:40:49;17.53;;;11.53;;
35578;SDS011;21687;48.900;9.188;2022-11-11T03:43:18;17.13;;;11.27;;
35578;SDS011;21687;48.900;9.188;2022-11-11T03:45:45;15.47;;;10.97;;
35578;SDS011;21687;48.900;9.188;2022-11-11T03:48:12;15.43;;;10.50;;
35578;SDS011;21687;48.900;9.188;2022-11-11T03:50:39;14.33;;;10.60;;
35578;SDS011;21687;48.900;9.188;2022-11-11T03:53:05;16.23;;;10.60;;
35578;SDS011;21687;48.900;9.188;2022-11-11T03:55:32;17.73;;;10.73;;
35578;SDS011;21687;48.900;9.188;2022-11-11T03:57:58;13.77;;;10.30;;
35578;SDS011;21687;48.900;9.188;2022-11-11T04:00:26;15.63;;;11.10;;
35578;SDS011;21687;48.900;9.188;2022-11-11T04:03:12;16.90;;;10.87;;
35578;SDS011;21687;48.900;9.188;2022-11-11T04:06:00;17.70;;;10.97;;
35578;SDS011;21687;48.900;9.188;2022-11-11T04:08:45;15.77;;;10.83;;
35578;SDS011;21687;48.900;9.188;2022-11-11T04:11:31;15.67;;;10.17;;
35578;SDS011;21687;48.900;9.188;2022-11-11T04:14:00;13.37;;;9.43;;
35578;SDS011;21687;48.900;9.188;2022-11-11T04:16:49;13.83;;;9.03;;
35578;SDS011;21687;48.900;9.188;2022-11-11T04:19:15;14.37;;;9.13;;
35578;SDS011;21687;48.900;9.188;2022-11-11T04:22:00;12.53;;;9.03;;
35578;SDS011;21687;48.900;9.188;2022-11-11T04:24:27;11.40;;;8.53;;
35578;SDS011;21687;48.900;9.188;2022-11-11T04:27:13;12.50;;;8.87;;
35578;SDS011;21687;48.900;9.188;2022-11-11T04:29:41;11.80;;;8.67;;
35578;SDS011;21687;48.900;9.188;2022-11-11T04:32:08;9.50;;;8.40;;
35578;SDS011;21687;48.900;9.188;2022-11-11T04:34:55;12.67;;;8.80;;
35578;SDS011;21687;48.900;9.188;2022-11-11T04:37:24;11.40;;;9.27;;
35578;SDS011;21687;48.900;9.188;2022-11-11T04:39:51;12.37;;;8.80;;
35578;SDS011;21687;48.900;9.188;2022-11-11T04:42:37;11.57;;;8.90;;
35578;SDS011;21687;48.900;9.188;2022-11-11T04:45:04;15.63;;;9.87;;
35578;SDS011;21687;48.900;9.188;2022-11-11T04:48:00;13.20;;;10.07;;
35578;SDS011;21687;48.900;9.188;2022-11-11T04:50:38;19.63;;;10.70;;
35578;SDS011;21687;48.900;9.188;2022-11-11T04:53:09;18.33;;;11.27;;
35578;SDS011;21687;48.900;9.188;2022-11-11T04:55:37;13.23;;;9.50;;
35578;SDS011;21687;48.900;9.188;2022-11-11T04:58:24;12.70;;;9.77;;
35578;SDS011;21687;48.900;9.188;2022-11-11T05:00:58;16.23;;;9.83;;
35578;SDS011;21687;48.900;9.188;2022-11-11T05:03:25;14.57;;;11.10;;
35578;SDS011;21687;48.900;9.188;2022-11-11T05:05:52;18.17;;;11.80;;
35578;SDS011;21687;48.900;9.188;2022-11-11T05:08:40;18.47;;;10.87;;
35578;SDS011;21687;48.900;9.188;2022-11-11T05:11:24;16.47;;;10.27;;
35578;SDS011;21687;48.900;9.188;2022-11-11T05:13:51;16.00;;;10.13;;
35578;SDS011;21687;48.900;9.188;2022-11-11T05:16:39;22.00;;;12.13;;
35578;SDS011;21687;48.900;9.188;2022-11-11T05:19:29;19.47;;;11.27;;
35578;SDS011;21687;48.900;9.188;2022-11-11T05:25:00;13.97;;;10.70;;
35578;SDS011;21687;48.900;9.188;2022-11-11T05:27:45;14.27;;;10.20;;
35578;SDS011;21687;48.900;9.188;2022-11-11T05:30:12;14.80;;;10.03;;
35578;SDS011;21687;48.900;9.188;2022-11-11T05:32:39;12.53;;;9.70;;
35578;SDS011;21687;48.900;9.188;2022-11-11T05:35:06;18.10;;;9.80;;
35578;SDS011;21687;48.900;9.188;2022-11-11T05:37:35;14.00;;;10.00;;
35578;SDS011;21687;48.900;9.188;2022-11-11T05:40:03;16.47;;;10.83;;
35578;SDS011;21687;48.900;9.188;2022-11-11T05:42:29;17.80;;;10.37;;
35578;SDS011;21687;48.900;9.188;2022-11-11T05:44:56;17.20;;;11.00;;
35578;SDS011;21687;48.900;9.188;2022-11-11T05:47:22;15.93;;;10.87;;
35578;SDS011;21687;48.900;9.188;2022-11-11T05:49:49;15.77;;;11.13;;
35578;SDS011;21687;48.900;9.188;2022-11-11T05:52:15;18.33;;;11.53;;
35578;SDS011;21687;48.900;9.188;2022-11-11T05:54:43;19.97;;;12.30;;
35578;SDS011;21687;48.900;9.188;2022-11-11T05:57:10;22.53;;;13.03;;
35578;SDS011;21687;48.900;9.188;2022-11-11T05:59:37;18.73;;;12.37;;
35578;SDS011;21687;48.900;9.188;2022-11-11T06:02:03;18.67;;;13.50;;
35578;SDS011;21687;48.900;9.188;2022-11-11T06:04:29;18.57;;;12.23;;
35578;SDS011;21687;48.900;9.188;2022-11-11T06:06:58;16.57;;;11.80;;
35578;SDS011;21687;48.900;9.188;2022-11-11T06:09:24;16.80;;;11.13;;
35578;SDS011;21687;48.900;9.188;2022-11-11T06:11:51;19.33;;;10.47;;
35578;SDS011;21687;48.900;9.188;2022-11-11T06:14:17;14.87;;;11.23;;
35578;SDS011;21687;48.900;9.188;2022-11-11T06:16:43;17.37;;;10.97;;
35578;SDS011;21687;48.900;9.188;2022-11-11T06:19:09;15.17;;;9.53;;
35578;SDS011;21687;48.900;9.188;2022-11-11T06:21:35;17.93;;;11.03;;
35578;SDS011;21687;48.900;9.188;2022-11-11T06:24:20;14.70;;;9.40;;
35578;SDS011;21687;48.900;9.188;2022-11-11T06:26:47;14.07;;;10.90;;
35578;SDS011;21687;48.900;9.188;2022-11-11T06:29:13;14.40;;;9.83;;
35578;SDS011;21687;48.900;9.188;2022-11-11T06:31:40;16.17;;;10.33;;
35578;SDS011;21687;48.900;9.188;2022-11-11T06:34:06;15.30;;;9.53;;
35578;SDS011;21687;48.900;9.188;2022-11-11T06:36:33;16.53;;;10.30;;
35578;SDS011;21687;48.900;9.188;2022-11-11T06:38:59;15.20;;;9.83;;
35578;SDS011;21687;48.900;9.188;2022-11-11T06:41:25;15.00;;;10.30;;
35578;SDS011;21687;48.900;9.188;2022-11-11T06:43:52;15.57;;;9.97;;
35578;SDS011;21687;48.900;9.188;2022-11-11T06:46:28;13.73;;;9.77;;
35578;SDS011;21687;48.900;9.188;2022-11-11T06:48:55;13.13;;;10.33;;
35578;SDS011;21687;48.900;9.188;2022-11-11T06:51:21;16.23;;;10.20;;
35578;SDS011;21687;48.900;9.188;2022-11-11T06:53:47;13.13;;;9.30;;
35578;SDS011;21687;48.900;9.188;2022-11-11T06:56:15;14.80;;;9.80;;
35578;SDS011;21687;48.900;9.188;2022-11-11T06:58:42;15.77;;;10.00;;
35578;SDS011;21687;48.900;9.188;2022-11-11T07:01:09;12.23;;;9.87;;
35578;SDS011;21687;48.900;9.188;2022-11-11T07:03:36;13.70;;;9.27;;
35578;SDS011;21687;48.900;9.188;2022-11-11T07:06:03;16.37;;;10.73;;
35578;SDS011;21687;48.900;9.188;2022-11-11T07:08:30;15.40;;;10.07;;
35578;SDS011;21687;48.900;9.188;2022-11-11T07:10:57;14.90;;;9.83;;
35578;SDS011;21687;48.900;9.188;2022-11-11T07:13:23;18.17;;;10.77;;
35578;SDS011;21687;48.900;9.188;2022-11-11T07:15:53;14.90;;;10.73;;
35578;SDS011;21687;48.900;9.188;2022-11-11T07:18:24;20.03;;;12.57;;
35578;SDS011;21687;48.900;9.188;2022-11-11T07:20:50;14.90;;;11.77;;
35578;SDS011;21687;48.900;9.188;2022-11-11T07:23:16;18.23;;;12.13;;
35578;SDS011;21687;48.900;9.188;2022-11-11T07:25:43;19.97;;;12.07;;
35578;SDS011;21687;48.900;9.188;2022-11-11T07:28:09;16.53;;;11.73;;
35578;SDS011;21687;48.900;9.188;2022-11-11T07:30:35;17.87;;;11.53;;
35578;SDS011;21687;48.900;9.188;2022-11-11T07:33:01;19.17;;;12.13;;
35578;SDS011;21687;48.900;9.188;2022-11-11T07:35:28;22.77;;;12.60;;
35578;SDS011;21687;48.900;9.188;2022-11-11T07:37:54;18.67;;;12.90;;
35578;SDS011;21687;48.900;9.188;2022-11-11T07:40:20;16.10;;;11.87;;
35578;SDS011;21687;48.900;9.188;2022-11-11T07:42:46;17.87;;;12.13;;
35578;SDS011;21687;48.900;9.188;2022-11-11T07:45:13;17.73;;;11.43;;
35578;SDS011;21687;48.900;9.188;2022-11-11T07:47:41;19.03;;;12.50;;
35578;SDS011;21687;48.900;9.188;2022-11-11T07:50:08;18.17;;;11.97;;
35578;SDS011;21687;48.900;9.188;2022-11-11T07:52:35;18.70;;;12.40;;
35578;SDS011;21687;48.900;9.188;2022-11-11T07:55:01;16.70;;;11.93;;
35578;SDS011;21687;48.900;9.188;2022-11-11T07:57:28;19.87;;;13.10;;
35578;SDS011;21687;48.900;9.188;2022-11-11T07:59:55;16.60;;;14.20;;
35578;SDS011;21687;48.900;9.188;2022-11-11T08:02:21;24.13;;;19.67;;
35578;SDS011;21687;48.900;9.188;2022-11-11T08:04:47;22.60;;;16.20;;
35578;SDS011;21687;48.900;9.188;2022-11-11T08:07:13;20.03;;;14.17;;
35578;SDS011;21687;48.900;9.188;2022-11-11T08:09:39;19.00;;;12.37;;
35578;SDS011;21687;48.900;9.188;2022-11-11T08:12:07;15.93;;;11.13;;
35578;SDS011;21687;48.900;9.188;2022-11-11T08:14:52;16.30;;;12.00;;
35578;SDS011;21687;48.900;9.188;2022-11-11T08:17:19;17.30;;;11.83;;
35578;SDS011;21687;48.900;9.188;2022-11-11T08:19:46;16.23;;;10.73;;
35578;SDS011;21687;48.900;9.188;2022-11-11T08:22:13;14.23;;;11.40;;
35578;SDS011;21687;48.900;9.188;2022-11-11T08:24:39;14.13;;;10.83;;
35578;SDS011;21687;48.900;9.188;2022-11-11T08:27:06;16.00;;;11.43;;
35578;SDS011;21687;48.900;9.188;2022-11-11T08:29:33;14.53;;;11.50;;
35578;SDS011;21687;48.900;9.188;2022-11-11T08:32:00;16.70;;;12.60;;
35578;SDS011;21687;48.900;9.188;2022-11-11T08:34:27;14.37;;;10.73;;
35578;SDS011;21687;48.900;9.188;2022-11-11T08:36:53;15.43;;;11.07;;
35578;SDS011;21687;48.900;9.188;2022-11-11T08:39:20;14.47;;;11.43;;
35578;SDS011;21687;48.900;9.188;2022-11-11T08:41:46;15.10;;;11.60;;
35578;SDS011;21687;48.900;9.188;2022-11-11T08:44:12;18.60;;;11.07;;
35578;SDS011;21687;48.900;9.188;2022-11-11T08:46:38;14.20;;;11.27;;
35578;SDS011;21687;48.900;9.188;2022-11-11T08:49:05;18.53;;;10.83;;
35578;SDS011;21687;48.900;9.188;2022-11-11T08:51:32;13.07;;;10.67;;
35578;SDS011;21687;48.900;9.188;2022-11-11T08:53:59;17.07;;;11.40;;
35578;SDS011;21687;48.900;9.188;2022-11-11T08:56:25;14.17;;;11.10;;
35578;SDS011;21687;48.900;9.188;2022-11-11T08:58:51;14.20;;;10.67;;
35578;SDS011;21687;48.900;9.188;2022-11-11T09:01:17;16.60;;;11.80;;
35578;SDS011;21687;48.900;9.188;2022-11-11T09:03:43;15.53;;;11.50;;
35578;SDS011;21687;48.900;9.188;2022-11-11T09:06:10;19.80;;;11.27;;
35578;SDS011;21687;48.900;9.188;2022-11-11T09:08:39;17.13;;;11.27;;
35578;SDS011;21687;48.900;9.188;2022-11-11T09:11:07;12.87;;;10.57;;
35578;SDS011;21687;48.900;9.188;2022-11-11T09:13:33;17.37;;;11.47;;
35578;SDS011;21687;48.900;9.188;2022-11-11T09:15:59;15.43;;;11.53;;
35578;SDS011;21687;48.900;9.188;2022-11-11T09:18:26;13.63;;;11.27;;
35578;SDS011;21687;48.900;9.188;2022-11-11T09:20:56;13.27;;;11.20;;
35578;SDS011;21687;48.900;9.188;2022-11-11T09:23:24;17.60;;;11.43;;
35578;SDS011;21687;48.900;9.188;2022-11-11T09:25:50;14.73;;;11.77;;
35578;SDS011;21687;48.900;9.188;2022-11-11T09:28:17;12.17;;;9.77;;
35578;SDS011;21687;48.900;9.188;2022-11-11T09:30:43;20.67;;;10.77;;
35578;SDS011;21687;48.900;9.188;2022-11-11T09:33:09;13.57;;;10.50;;
35578;SDS011;21687;48.900;9.188;2022-11-11T09:35:36;11.40;;;10.00;;
35578;SDS011;21687;48.900;9.188;2022-11-11T09:38:03;13.83;;;10.13;;
35578;SDS011;21687;48.900;9.188;2022-11-11T09:40:34;19.03;;;10.40;;
35578;SDS011;21687;48.900;9.188;2022-11-11T09:43:16;12.63;;;9.70;;
35578;SDS011;21687;48.900;9.188;2022-11-11T09:48:37;11.67;;;9.80;;
35578;SDS011;21687;48.900;9.188;2022-11-11T09:51:15;14.93;;;9.80;;
35578;SDS011;21687;48.900;9.188;2022-11-11T09:53:53;11.80;;;9.00;;
35578;SDS011;21687;48.900;9.188;2022-11-11T09:56:25;12.53;;;9.70;;
35578;SDS011;21687;48.900;9.188;2022-11-11T09:58:57;9.97;;;8.73;;
35578;SDS011;21687;48.900;9.188;2022-11-11T10:01:26;10.70;;;8.17;;
35578;SDS011;21687;48.900;9.188;2022-11-11T10:07:08;9.50;;;8.43;;
35578;SDS011;21687;48.900;9.188;2022-11-11T10:09:58;8.57;;;7.67;;
35578;SDS011;21687;48.900;9.188;2022-11-11T10:12:43;8.80;;;7.90;;
35578;SDS011;21687;48.900;9.188;2022-11-11T10:15:16;10.37;;;7.57;;
35578;SDS011;21687;48.900;9.188;2022-11-11T10:20:28;10.10;;;7.33;;
35578;SDS011;21687;48.900;9.188;2022-11-11T10:23:13;8.20;;;6.73;;
35578;SDS011;21687;48.900;9.188;2022-11-11T10:25:44;8.87;;;7.03;;
35578;SDS011;21687;48.900;9.188;2022-11-11T10:28:18;11.80;;;7.80;;
35578;SDS011;21687;48.900;9.188;2022-11-11T10:30:47;7.90;;;7.13;;
35578;SDS011;21687;48.900;9.188;2022-11-11T10:35:53;10.70;;;7.47;;
35578;SDS011;21687;48.900;9.188;2022-11-11T10:38:44;9.20;;;7.53;;
35578;SDS011;21687;48.900;9.188;2022-11-11T10:41:20;10.97;;;7.33;;
35578;SDS011;21687;48.900;9.188;2022-11-11T10:43:54;10.73;;;8.13;;
35578;SDS011;21687;48.900;9.188;2022-11-11T10:46:22;8.47;;;7.53;;
35578;SDS011;21687;48.900;9.188;2022-11-11T10:48:57;9.97;;;7.90;;
35578;SDS011;21687;48.900;9.188;2022-11-11T10:51:46;12.73;;;7.23;;
35578;SDS011;21687;48.900;9.188;2022-11-11T10:54:18;9.93;;;7.57;;
35578;SDS011;21687;48.900;9.188;2022-11-11T11:00:15;9.33;;;7.43;;
35578;SDS011;21687;48.900;9.188;2022-11-11T11:05:25;9.07;;;7.03;;
35578;SDS011;21687;48.900;9.188;2022-11-11T11:08:19;10.60;;;6.90;;
35578;SDS011;21687;48.900;9.188;2022-11-11T11:11:08;9.60;;;7.27;;
35578;SDS011;21687;48.900;9.188;2022-11-11T11:13:50;10.37;;;6.43;;
35578;SDS011;21687;48.900;9.188;2022-11-11T11:16:24;7.80;;;6.10;;
35578;SDS011;21687;48.900;9.188;2022-11-11T11:19:13;9.20;;;5.57;;
35578;SDS011;21687;48.900;9.188;2022-11-11T11:21:46;9.17;;;6.20;;
35578;SDS011;21687;48.900;9.188;2022-11-11T11:24:29;7.67;;;5.97;;
35578;SDS011;21687;48.900;9.188;2022-11-11T11:27:03;9.00;;;6.00;;
35578;SDS011;21687;48.900;9.188;2022-11-11T11:32:13;8.07;;;5.73;;
35578;SDS011;21687;48.900;9.188;2022-11-11T11:34:57;7.63;;;5.60;;
35578;SDS011;21687;48.900;9.188;2022-11-11T11:37:25;7.47;;;5.47;;
35578;SDS011;21687;48.900;9.188;2022-11-11T11:39:58;6.53;;;5.77;;
35578;SDS011;21687;48.900;9.188;2022-11-11T11:42:32;7.93;;;5.33;;
35578;SDS011;21687;48.900;9.188;2022-11-11T11:50:48;8.10;;;5.87;;
35578;SDS011;21687;48.900;9.188;2022-11-11T11:53:27;9.20;;;6.03;;
35578;SDS011;21687;48.900;9.188;2022-11-11T11:59:08;5.73;;;4.83;;
35578;SDS011;21687;48.900;9.188;2022-11-11T12:07:37;5.63;;;4.63;;
35578;SDS011;21687;48.900;9.188;2022-11-11T12:10:23;4.60;;;4.07;;
35578;SDS011;21687;48.900;9.188;2022-11-11T12:21:21;5.37;;;4.10;;
35578;SDS011;21687;48.900;9.188;2022-11-11T12:23:57;4.83;;;3.90;;
35578;SDS011;21687;48.900;9.188;2022-11-11T12:26:42;10.80;;;4.40;;
35578;SDS011;21687;48.900;9.188;2022-11-11T12:29:31;5.90;;;4.30;;
35578;SDS011;21687;48.900;9.188;2022-11-11T12:40:19;7.70;;;3.97;;
35578;SDS011;21687;48.900;9.188;2022-11-11T12:48:04;7.43;;;3.37;;
35578;SDS011;21687;48.900;9.188;2022-11-11T12:50:49;3.70;;;3.33;;
35578;SDS011;21687;48.900;9.188;2022-11-11T12:53:32;3.90;;;3.30;;
35578;SDS011;21687;48.900;9.188;2022-11-11T12:56:26;4.67;;;3.07;;
35578;SDS011;21687;48.900;9.188;2022-11-11T12:58:59;5.60;;;4.03;;
35578;SDS011;21687;48.900;9.188;2022-11-11T13:01:50;3.30;;;3.00;;
35578;SDS011;21687;48.900;9.188;2022-11-11T13:07:52;6.07;;;3.27;;
35578;SDS011;21687;48.900;9.188;2022-11-11T13:15:58;5.67;;;3.23;;
35578;SDS011;21687;48.900;9.188;2022-11-11T13:21:14;4.57;;;2.63;;
35578;SDS011;21687;48.900;9.188;2022-11-11T13:23:48;4.03;;;2.67;;
35578;SDS011;21687;48.900;9.188;2022-11-11T13:26:22;3.60;;;3.10;;
35578;SDS011;21687;48.900;9.188;2022-11-11T13:29:29;4.80;;;3.70;;
35578;SDS011;21687;48.900;9.188;2022-11-11T13:32:17;3.90;;;2.70;;
35578;SDS011;21687;48.900;9.188;2022-11-11T13:34:48;7.90;;;3.07;;
35578;SDS011;21687;48.900;9.188;2022-11-11T13:37:21;4.53;;;2.90;;
35578;SDS011;21687;48.900;9.188;2022-11-11T13:39:54;4.20;;;2.90;;
35578;SDS011;21687;48.900;9.188;2022-11-11T13:42:33;5.23;;;3.00;;
35578;SDS011;21687;48.900;9.188;2022-11-11T13:45:06;5.13;;;3.50;;
35578;SDS011;21687;48.900;9.188;2022-11-11T13:47:45;3.80;;;3.00;;
35578;SDS011;21687;48.900;9.188;2022-11-11T13:50:14;4.30;;;2.83;;
35578;SDS011;21687;48.900;9.188;2022-11-11T13:52:57;6.67;;;2.93;;
35578;SDS011;21687;48.900;9.188;2022-11-11T13:57:56;3.50;;;3.10;;
35578;SDS011;21687;48.900;9.188;2022-11-11T14:00:24;5.73;;;2.87;;
35578;SDS011;21687;48.900;9.188;2022-11-11T14:05:38;5.70;;;3.17;;
35578;SDS011;21687;48.900;9.188;2022-11-11T14:08:05;4.60;;;2.70;;
35578;SDS011;21687;48.900;9.188;2022-11-11T14:16:11;5.50;;;3.40;;
35578;SDS011;21687;48.900;9.188;2022-11-11T14:21:57;4.10;;;2.87;;
35578;SDS011;21687;48.900;9.188;2022-11-11T14:27:00;3.23;;;2.67;;
35578;SDS011;21687;48.900;9.188;2022-11-11T14:29:32;3.33;;;2.30;;
35578;SDS011;21687;48.900;9.188;2022-11-11T14:35:28;3.53;;;2.57;;
35578;SDS011;21687;48.900;9.188;2022-11-11T14:38:24;4.40;;;2.73;;
35578;SDS011;21687;48.900;9.188;2022-11-11T14:49:50;4.73;;;2.83;;
35578;SDS011;21687;48.900;9.188;2022-11-11T14:52:27;6.67;;;3.03;;
35578;SDS011;21687;48.900;9.188;2022-11-11T14:55:21;5.80;;;3.03;;
35578;SDS011;21687;48.900;9.188;2022-11-11T15:02:55;5.37;;;3.10;;
35578;SDS011;21687;48.900;9.188;2022-11-11T15:08:38;5.80;;;2.97;;
35578;SDS011;21687;48.900;9.188;2022-11-11T15:11:12;4.00;;;3.13;;
35578;SDS011;21687;48.900;9.188;2022-11-11T15:22:52;5.53;;;3.40;;
35578;SDS011;21687;48.900;9.188;2022-11-11T15:25:38;4.07;;;2.70;;
35578;SDS011;21687;48.900;9.188;2022-11-11T15:39:20;8.23;;;3.67;;
35578;SDS011;21687;48.900;9.188;2022-11-11T15:41:51;5.33;;;3.80;;
35578;SDS011;21687;48.900;9.188;2022-11-11T15:44:22;10.20;;;9.10;;
35578;SDS011;21687;48.900;9.188;2022-11-11T15:46:53;5.40;;;4.40;;
35578;SDS011;21687;48.900;9.188;2022-11-11T15:49:36;5.97;;;4.40;;
35578;SDS011;21687;48.900;9.188;2022-11-11T15:54:50;8.43;;;6.43;;
35578;SDS011;21687;48.900;9.188;2022-11-11T15:59:53;46.07;;;37.73;;
35578;SDS011;21687;48.900;9.188;2022-11-11T16:02:21;25.63;;;21.90;;
35578;SDS011;21687;48.900;9.188;2022-11-11T16:04:52;21.67;;;17.90;;
35578;SDS011;21687;48.900;9.188;2022-11-11T16:07:40;22.13;;;18.83;;
35578;SDS011;21687;48.900;9.188;2022-11-11T16:10:30;12.77;;;11.47;;
35578;SDS011;21687;48.900;9.188;2022-11-11T16:12:57;10.77;;;8.20;;
35578;SDS011;21687;48.900;9.188;2022-11-11T16:18:09;6.83;;;5.30;;
35578;SDS011;21687;48.900;9.188;2022-11-11T16:20:53;8.60;;;7.70;;
35578;SDS011;21687;48.900;9.188;2022-11-11T16:23:22;8.73;;;6.27;;
35578;SDS011;21687;48.900;9.188;2022-11-11T16:25:49;10.23;;;6.33;;
35578;SDS011;21687;48.900;9.188;2022-11-11T16:28:16;12.93;;;9.57;;
35578;SDS011;21687;48.900;9.188;2022-11-11T16:30:43;9.93;;;7.73;;
35578;SDS011;21687;48.900;9.188;2022-11-11T16:35:51;9.27;;;6.97;;
35578;SDS011;21687;48.900;9.188;2022-11-11T16:38:30;10.63;;;6.53;;
35578;SDS011;21687;48.900;9.188;2022-11-11T16:40:57;8.83;;;6.17;;
35578;SDS011;21687;48.900;9.188;2022-11-11T16:43:33;8.73;;;6.77;;
35578;SDS011;21687;48.900;9.188;2022-11-11T16:46:52;9.90;;;7.13;;
35578;SDS011;21687;48.900;9.188;2022-11-11T16:49:00;12.07;;;7.07;;
35578;SDS011;21687;48.900;9.188;2022-11-11T16:51:52;10.37;;;8.27;;
35578;SDS011;21687;48.900;9.188;2022-11-11T16:54:20;9.43;;;7.13;;
35578;SDS011;21687;48.900;9.188;2022-11-11T16:56:52;10.63;;;8.23;;
35578;SDS011;21687;48.900;9.188;2022-11-11T17:02:17;14.73;;;11.27;;
35578;SDS011;21687;48.900;9.188;2022-11-11T17:04:49;12.00;;;8.33;;
35578;SDS011;21687;48.900;9.188;2022-11-11T17:07:32;32.27;;;23.27;;
35578;SDS011;21687;48.900;9.188;2022-11-11T17:10:09;23.70;;;14.97;;
35578;SDS011;21687;48.900;9.188;2022-11-11T17:12:38;14.70;;;10.00;;
35578;SDS011;21687;48.900;9.188;2022-11-11T17:15:08;13.87;;;9.67;;
35578;SDS011;21687;48.900;9.188;2022-11-11T17:17:37;13.87;;;9.10;;
35578;SDS011;21687;48.900;9.188;2022-11-11T17:22:35;14.13;;;8.90;;
35578;SDS011;21687;48.900;9.188;2022-11-11T17:25:02;15.03;;;10.30;;
35578;SDS011;21687;48.900;9.188;2022-11-11T17:27:29;14.83;;;11.03;;
35578;SDS011;21687;48.900;9.188;2022-11-11T17:29:56;14.10;;;11.07;;
35578;SDS011;21687;48.900;9.188;2022-11-11T17:32:22;14.03;;;10.00;;
35578;SDS011;21687;48.900;9.188;2022-11-11T17:34:49;18.50;;;11.00;;